createdAt,value
2023-04-16T00:01:07.161Z,100983.63
2023-04-16T00:03:35.894Z,100984.94
2023-04-16T00:06:04.700Z,100983.52
2023-04-16T00:08:33.493Z,100985.17
2023-04-16T00:11:01.809Z,100984.23
2023-04-16T00:13:37.081Z,100985.98
2023-04-16T00:16:06.109Z,100990.46
2023-04-16T00:18:34.356Z,100994.23
2023-04-16T00:21:09.934Z,100994.19
2023-04-16T00:23:38.324Z,100992.90
2023-04-16T00:26:06.598Z,100997.39
2023-04-16T00:28:37.060Z,100995.60
2023-04-16T00:31:05.627Z,100991.73
2023-04-16T00:33:34.435Z,100994.83
2023-04-16T00:36:04.371Z,100996.67
2023-04-16T00:38:34.333Z,100997.92
2023-04-16T00:41:03.603Z,100999.35
2023-04-16T00:43:31.971Z,100999.88
2023-04-16T00:46:00.663Z,101001.33
2023-04-16T00:48:32.628Z,100998.55
2023-04-16T00:51:01.965Z,101002.46
2023-04-16T00:53:30.960Z,101002.06
2023-04-16T00:56:03.342Z,101003.07
2023-04-16T00:58:32.947Z,101000.92
2023-04-16T01:01:01.707Z,100999.79
2023-04-16T01:03:40.465Z,100999.34
2023-04-16T01:06:09.024Z,100995.94
2023-04-16T01:08:37.464Z,100999.06
2023-04-16T01:11:05.956Z,100996.91
2023-04-16T01:13:39.446Z,101000.25
2023-04-16T01:16:09.457Z,101002.15
2023-04-16T01:18:38.385Z,101003.36
2023-04-16T01:21:07.227Z,101002.70
2023-04-16T01:23:39.146Z,100999.23
2023-04-16T01:26:13.198Z,101001.35
2023-04-16T01:28:43.619Z,101000.11
2023-04-16T01:31:12.125Z,100996.60
2023-04-16T01:33:59.711Z,100998.29
2023-04-16T01:36:28.064Z,100999.25
2023-04-16T01:38:56.808Z,101000.42
2023-04-16T01:41:25.999Z,101000.66
2023-04-16T01:43:54.332Z,100996.33
2023-04-16T01:46:27.374Z,100998.83
2023-04-16T01:48:56.168Z,101002.30
2023-04-16T01:51:24.658Z,101001.71
2023-04-16T01:53:52.983Z,101002.10
2023-04-16T01:56:21.901Z,101000.61
2023-04-16T01:58:50.493Z,101001.50
2023-04-16T02:01:23.807Z,101003.29
2023-04-16T02:03:54.635Z,101003.39
2023-04-16T02:06:23.484Z,101009.92
2023-04-16T02:08:51.834Z,101009.85
2023-04-16T02:11:21.451Z,101010.05
2023-04-16T02:13:50.943Z,101008.95
2023-04-16T02:16:20.215Z,101008.86
2023-04-16T02:18:52.584Z,101011.88
2023-04-16T02:21:25.435Z,101016.67
2023-04-16T02:24:15.375Z,101018.94
2023-04-16T02:26:57.267Z,101024.34
2023-04-16T02:29:41.398Z,101023.80
2023-04-16T02:32:19.904Z,101021.59
2023-04-16T02:34:52.752Z,101026.82
2023-04-16T02:37:21.692Z,101023.73
2023-04-16T02:39:54.034Z,101026.20
2023-04-16T02:42:28.863Z,101027.05
2023-04-16T02:45:00.421Z,101029.56
2023-04-16T02:47:29.403Z,101030.88
2023-04-16T02:50:00.254Z,101034.08
2023-04-16T02:52:28.967Z,101033.01
2023-04-16T02:54:57.261Z,101036.57
2023-04-16T02:57:26.287Z,101037.11
2023-04-16T02:59:54.636Z,101036.05
2023-04-16T03:02:23.127Z,101036.35
2023-04-16T03:04:55.316Z,101042.75
2023-04-16T03:07:23.565Z,101045.23
2023-04-16T03:09:52.061Z,101048.43
2023-04-16T03:12:21.080Z,101054.61
2023-04-16T03:14:52.720Z,101056.09
2023-04-16T03:17:21.199Z,101058.33
2023-04-16T03:19:53.254Z,101057.52
2023-04-16T03:22:22.108Z,101057.44
2023-04-16T03:24:50.424Z,101058.35
2023-04-16T03:27:18.678Z,101064.58
2023-04-16T03:29:47.297Z,101061.17
2023-04-16T03:32:15.755Z,101064.59
2023-04-16T03:34:44.242Z,101065.23
2023-04-16T03:37:12.638Z,101068.15
2023-04-16T03:39:41.191Z,101069.59
2023-04-16T03:42:12.033Z,101065.63
2023-04-16T03:44:40.761Z,101070.23
2023-04-16T03:47:10.131Z,101068.09
2023-04-16T03:49:42.169Z,101069.21
2023-04-16T03:52:11.595Z,101075.72
2023-04-16T03:54:41.508Z,101080.11
2023-04-16T03:57:21.280Z,101082.77
2023-04-16T03:59:50.264Z,101081.97
2023-04-16T04:02:19.394Z,101086.02
2023-04-16T04:04:49.032Z,101084.89
2023-04-16T04:07:18.178Z,101087.05
2023-04-16T04:09:46.423Z,101084.83
2023-04-16T04:12:14.739Z,101086.33
2023-04-16T04:14:43.664Z,101092.08
2023-04-16T04:17:12.364Z,101090.69
2023-04-16T04:19:47.033Z,101086.09
2023-04-16T04:22:24.076Z,101087.94
2023-04-16T04:24:54.041Z,101092.23
2023-04-16T04:27:22.962Z,101092.70
2023-04-16T04:29:51.297Z,101092.25
2023-04-16T04:32:19.626Z,101092.58
2023-04-16T04:34:50.382Z,101092.17
2023-04-16T04:37:18.746Z,101093.19
2023-04-16T04:39:47.136Z,101097.07
2023-04-16T04:42:19.610Z,101097.37
2023-04-16T04:44:48.088Z,101093.79
2023-04-16T04:47:16.778Z,101095.42
2023-04-16T04:49:44.997Z,101094.95
2023-04-16T04:52:14.811Z,101096.41
2023-04-16T04:54:45.651Z,101099.66
2023-04-16T04:57:13.892Z,101100.95
2023-04-16T04:59:42.168Z,101100.91
2023-04-16T05:02:12.066Z,101102.58
2023-04-16T05:04:40.781Z,101099.77
2023-04-16T05:07:09.077Z,101103.55
2023-04-16T05:09:37.480Z,101106.11
2023-04-16T05:12:05.943Z,101103.98
2023-04-16T05:14:35.151Z,101101.70
2023-04-16T05:17:04.616Z,101101.97
2023-04-16T05:19:33.858Z,101107.68
2023-04-16T05:22:02.936Z,101108.86
2023-04-16T05:24:31.547Z,101111.44
2023-04-16T05:26:59.846Z,101111.46
2023-04-16T05:29:29.857Z,101112.93
2023-04-16T05:31:58.385Z,101111.75
2023-04-16T05:34:26.608Z,101113.98
2023-04-16T05:36:55.988Z,101114.77
2023-04-16T05:39:24.282Z,101114.67
2023-04-16T05:41:52.793Z,101115.63
2023-04-16T05:44:21.605Z,101115.48
2023-04-16T05:46:52.513Z,101118.56
2023-04-16T05:49:21.699Z,101122.69
2023-04-16T05:51:51.220Z,101118.70
2023-04-16T05:54:19.868Z,101120.33
2023-04-16T05:56:48.273Z,101123.30
2023-04-16T05:59:17.212Z,101123.04
2023-04-16T06:01:45.831Z,101123.55
2023-04-16T06:04:14.259Z,101126.73
2023-04-16T06:06:42.985Z,101131.08
2023-04-16T06:09:14.215Z,101135.50
2023-04-16T06:11:42.496Z,101144.25
2023-04-16T06:14:11.099Z,101142.47
2023-04-16T06:16:39.451Z,101143.23
2023-04-16T06:19:07.826Z,101141.66
2023-04-16T06:21:38.091Z,101145.52
2023-04-16T06:24:06.673Z,101150.65
2023-04-16T06:26:35.500Z,101155.21
2023-04-16T06:29:04.052Z,101154.37
2023-04-16T06:31:32.806Z,101160.20
2023-04-16T06:34:01.651Z,101163.04
2023-04-16T06:36:30.818Z,101163.71
2023-04-16T06:38:59.060Z,101166.20
2023-04-16T06:41:27.638Z,101170.92
2023-04-16T06:43:55.897Z,101173.15
2023-04-16T06:46:24.235Z,101174.73
2023-04-16T06:48:54.837Z,101174.84
2023-04-16T06:51:23.064Z,101175.70
2023-04-16T06:53:51.488Z,101177.09
2023-04-16T06:56:19.861Z,101178.90
2023-04-16T06:58:48.603Z,101177.61
2023-04-16T07:01:17.989Z,101180.52
2023-04-16T07:03:46.596Z,101180.09
2023-04-16T07:06:16.901Z,101183.25
2023-04-16T07:08:45.675Z,101187.17
2023-04-16T07:11:14.379Z,101188.15
2023-04-16T07:13:42.620Z,101188.67
2023-04-16T07:16:11.231Z,101185.69
2023-04-16T07:18:39.798Z,101188.69
2023-04-16T07:21:08.168Z,101184.63
2023-04-16T07:23:36.651Z,101187.81
2023-04-16T07:26:05.098Z,101188.63
2023-04-16T07:28:34.083Z,101182.48
2023-04-16T07:31:02.405Z,101186.66
2023-04-16T07:33:31.318Z,101186.45
2023-04-16T07:36:03.255Z,101185.58
2023-04-16T07:38:31.566Z,101186.70
2023-04-16T07:41:00.142Z,101189.42
2023-04-16T07:43:28.910Z,101187.66
2023-04-16T07:46:00.701Z,101189.73
2023-04-16T07:48:28.965Z,101194.70
2023-04-16T07:50:57.341Z,101192.61
2023-04-16T07:53:25.614Z,101194.61
2023-04-16T07:55:53.915Z,101192.57
2023-04-16T07:58:24.865Z,101191.72
2023-04-16T08:00:53.592Z,101193.56
2023-04-16T08:03:23.007Z,101193.44
2023-04-16T08:05:51.547Z,101193.59
2023-04-16T08:08:20.429Z,101195.25
2023-04-16T08:10:50.665Z,101195.50
2023-04-16T08:13:20.673Z,101194.59
2023-04-16T08:15:48.962Z,101195.84
2023-04-16T08:18:17.703Z,101191.45
2023-04-16T08:20:47.888Z,101194.38
2023-04-16T08:23:19.033Z,101190.60
2023-04-16T08:25:48.063Z,101193.05
2023-04-16T08:28:18.912Z,101191.72
2023-04-16T08:30:48.125Z,101193.11
2023-04-16T08:33:17.735Z,101193.45
2023-04-16T08:35:47.347Z,101194.88
2023-04-16T08:38:17.139Z,101197.88
2023-04-16T08:40:49.389Z,101196.54
2023-04-16T08:43:18.419Z,101195.70
2023-04-16T08:45:47.702Z,101197.92
2023-04-16T08:48:16.106Z,101196.98
2023-04-16T08:50:44.806Z,101195.86
2023-04-16T08:53:17.685Z,101190.73
2023-04-16T08:55:51.256Z,101192.48
2023-04-16T08:58:21.634Z,101192.33
2023-04-16T09:00:50.065Z,101191.56
2023-04-16T09:03:20.418Z,101193.52
2023-04-16T09:05:49.732Z,101193.62
2023-04-16T09:08:21.657Z,101194.65
2023-04-16T09:10:50.015Z,101194.95
2023-04-16T09:13:20.837Z,101196.02
2023-04-16T09:15:57.319Z,101192.08
2023-04-16T09:18:25.993Z,101196.05
2023-04-16T09:20:57.017Z,101201.27
2023-04-16T09:23:25.873Z,101203.40
2023-04-16T09:25:54.323Z,101206.66
2023-04-16T09:28:45.429Z,101210.83
2023-04-16T09:31:14.697Z,101208.73
2023-04-16T09:33:43.525Z,101211.31
2023-04-16T09:36:11.994Z,101211.10
2023-04-16T09:38:50.851Z,101211.45
2023-04-16T09:41:19.346Z,101216.36
2023-04-16T09:44:04.736Z,101215.45
2023-04-16T09:47:08.761Z,101216.64
2023-04-16T09:49:43.565Z,101218.52
2023-04-16T09:52:20.024Z,101223.40
2023-04-16T09:54:51.779Z,101224.48
2023-04-16T09:57:22.262Z,101226.59
2023-04-16T10:00:18.540Z,101226.33
2023-04-16T10:02:48.036Z,101227.10
2023-04-16T10:05:18.953Z,101232.05
2023-04-16T10:07:49.708Z,101231.08
2023-04-16T10:10:19.286Z,101230.23
2023-04-16T10:12:52.003Z,101229.89
2023-04-16T10:15:20.174Z,101233.60
2023-04-16T10:17:50.681Z,101241.72
2023-04-16T10:20:19.062Z,101244.31
2023-04-16T10:22:47.433Z,101246.42
2023-04-16T10:25:16.728Z,101247.81
2023-04-16T10:27:45.105Z,101247.44
2023-04-16T10:30:14.841Z,101248.27
2023-04-16T10:32:53.647Z,101250.10
2023-04-16T10:35:25.590Z,101245.99
2023-04-16T10:37:57.429Z,101248.89
2023-04-16T10:40:27.353Z,101247.39
2023-04-16T10:42:58.809Z,101245.66
2023-04-16T10:45:38.580Z,101244.35
2023-04-16T10:48:10.186Z,101243.15
2023-04-16T10:50:38.602Z,101246.43
2023-04-16T10:53:20.610Z,101245.40
2023-04-16T10:56:04.851Z,101246.98
2023-04-16T10:58:36.058Z,101246.36
2023-04-16T11:01:12.434Z,101251.55
2023-04-16T11:03:47.185Z,101251.86
2023-04-16T11:06:22.346Z,101256.56
2023-04-16T11:08:55.035Z,101257.06
2023-04-16T11:11:23.805Z,101254.63
2023-04-16T11:13:58.865Z,101260.15
2023-04-16T11:16:27.228Z,101260.23
2023-04-16T11:18:58.196Z,101262.52
2023-04-16T11:21:27.115Z,101261.55
2023-04-16T11:23:57.152Z,101262.34
2023-04-16T11:26:27.725Z,101261.98
2023-04-16T11:28:57.160Z,101260.84
2023-04-16T11:31:27.523Z,101256.80
2023-04-16T11:33:57.095Z,101251.20
2023-04-16T11:36:27.468Z,101252.37
2023-04-16T11:39:02.454Z,101256.39
2023-04-16T11:41:30.968Z,101253.54
2023-04-16T11:43:59.263Z,101256.95
2023-04-16T11:46:40.943Z,101255.52
2023-04-16T11:49:09.489Z,101249.63
2023-04-16T11:51:42.229Z,101250.05
2023-04-16T11:54:20.950Z,101248.33
2023-04-16T11:56:50.554Z,101246.62
2023-04-16T11:59:25.724Z,101248.02
2023-04-16T12:01:56.121Z,101243.23
2023-04-16T12:04:27.009Z,101248.09
2023-04-16T12:07:12.563Z,101248.98
2023-04-16T12:09:42.944Z,101249.18
2023-04-16T12:12:33.461Z,101247.61
2023-04-16T12:15:05.384Z,101251.98
2023-04-16T12:17:35.629Z,101248.34
2023-04-16T12:20:15.268Z,101247.14
2023-04-16T12:22:47.939Z,101248.41
2023-04-16T12:25:17.312Z,101246.09
2023-04-16T12:27:53.953Z,101246.56
2023-04-16T12:30:23.702Z,101244.70
2023-04-16T12:33:19.555Z,101244.77
2023-04-16T12:35:47.932Z,101244.07
2023-04-16T12:38:18.220Z,101239.59
2023-04-16T12:40:46.703Z,101241.31
2023-04-16T12:43:15.191Z,101243.41
2023-04-16T12:45:43.438Z,101241.75
2023-04-16T12:48:11.756Z,101240.81
2023-04-16T12:50:40.394Z,101242.14
2023-04-16T12:53:08.599Z,101238.27
2023-04-16T12:55:36.967Z,101243.45
2023-04-16T12:58:05.223Z,101243.83
2023-04-16T13:00:34.448Z,101243.69
2023-04-16T13:03:02.901Z,101239.36
2023-04-16T13:05:31.650Z,101237.21
2023-04-16T13:08:02.430Z,101232.48
2023-04-16T13:10:31.723Z,101229.15
2023-04-16T13:13:00.079Z,101228.94
2023-04-16T13:15:29.848Z,101231.61
2023-04-16T13:17:58.195Z,101229.95
2023-04-16T13:20:26.452Z,101229.73
2023-04-16T13:22:55.246Z,101234.84
2023-04-16T13:25:23.462Z,101234.65
2023-04-16T13:27:52.223Z,101236.64
2023-04-16T13:30:20.812Z,101240.58
2023-04-16T13:32:49.461Z,101237.07
2023-04-16T13:35:17.806Z,101239.70
2023-04-16T13:37:46.674Z,101244.61
2023-04-16T13:40:17.141Z,101243.71
2023-04-16T13:42:45.868Z,101243.25
2023-04-16T13:45:14.334Z,101238.91
2023-04-16T13:47:43.803Z,101240.58
2023-04-16T13:50:12.126Z,101241.14
2023-04-16T13:52:41.431Z,101240.42
2023-04-16T13:55:10.655Z,101241.73
2023-04-16T13:57:39.109Z,101239.64
2023-04-16T14:00:08.422Z,101239.48
2023-04-16T14:02:37.355Z,101236.71
2023-04-16T14:05:07.140Z,101237.61
2023-04-16T14:07:36.626Z,101237.86
2023-04-16T14:10:05.184Z,101240.59
2023-04-16T14:12:33.716Z,101242.41
2023-04-16T14:15:10.833Z,101236.98
2023-04-16T14:17:39.366Z,101237.13
2023-04-16T14:20:09.605Z,101233.77
2023-04-16T14:22:39.818Z,101233.65
2023-04-16T14:25:08.300Z,101232.69
2023-04-16T14:27:36.845Z,101232.84
2023-04-16T14:30:06.330Z,101234.45
2023-04-16T14:32:34.846Z,101230.50
2023-04-16T14:35:03.346Z,101232.48
2023-04-16T14:37:36.773Z,101236.40
2023-04-16T14:40:09.028Z,101233.05
2023-04-16T14:42:39.939Z,101230.42
2023-04-16T14:45:09.522Z,101230.73
2023-04-16T14:47:46.001Z,101233.34
2023-04-16T14:50:15.853Z,101233.81
2023-04-16T14:52:44.155Z,101238.45
2023-04-16T14:55:12.736Z,101244.00
2023-04-16T14:57:42.665Z,101246.06
2023-04-16T15:00:12.174Z,101250.43
2023-04-16T15:02:41.069Z,101249.54
2023-04-16T15:05:10.736Z,101249.60
2023-04-16T15:07:39.227Z,101250.16
2023-04-16T15:10:08.858Z,101246.04
2023-04-16T15:12:38.898Z,101248.91
2023-04-16T15:15:08.376Z,101246.48
2023-04-16T15:17:37.051Z,101249.52
2023-04-16T15:20:08.705Z,101248.93
2023-04-16T15:22:38.361Z,101246.66
2023-04-16T15:25:07.002Z,101245.81
2023-04-16T15:27:36.751Z,101247.30
2023-04-16T15:30:06.751Z,101241.23
2023-04-16T15:32:35.442Z,101238.39
2023-04-16T15:35:13.796Z,101238.02
2023-04-16T15:37:46.415Z,101244.38
2023-04-16T15:40:16.208Z,101240.14
2023-04-16T15:42:45.069Z,101241.40
2023-04-16T15:45:13.327Z,101243.28
2023-04-16T15:47:42.137Z,101241.73
2023-04-16T15:50:10.556Z,101241.52
2023-04-16T15:52:42.186Z,101242.42
2023-04-16T15:55:10.899Z,101243.48
2023-04-16T15:57:39.459Z,101242.80
2023-04-16T16:00:16.651Z,101244.53
2023-04-16T16:02:47.228Z,101241.98
2023-04-16T16:05:16.196Z,101244.01
2023-04-16T16:07:44.815Z,101248.25
2023-04-16T16:10:13.477Z,101249.44
2023-04-16T16:12:42.557Z,101252.70
2023-04-16T16:15:11.384Z,101253.64
2023-04-16T16:17:43.693Z,101252.00
2023-04-16T16:20:13.760Z,101250.67
2023-04-16T16:22:45.468Z,101247.33
2023-04-16T16:25:14.682Z,101248.48
2023-04-16T16:27:43.852Z,101247.50
2023-04-16T16:30:12.672Z,101244.84
2023-04-16T16:32:41.279Z,101245.69
2023-04-16T16:35:11.201Z,101244.52
2023-04-16T16:37:39.716Z,101247.65
2023-04-16T16:40:09.008Z,101244.84
2023-04-16T16:42:38.623Z,101245.34
2023-04-16T16:45:07.981Z,101246.59
2023-04-16T16:47:37.560Z,101247.23
2023-04-16T16:50:07.271Z,101250.89
2023-04-16T16:52:35.937Z,101249.00
2023-04-16T16:55:04.500Z,101251.69
2023-04-16T16:57:32.734Z,101250.91
2023-04-16T17:00:01.127Z,101251.91
2023-04-16T17:02:32.576Z,101256.20
2023-04-16T17:05:01.408Z,101262.88
2023-04-16T17:07:30.242Z,101267.09
2023-04-16T17:10:01.354Z,101270.52
2023-04-16T17:12:32.318Z,101274.20
2023-04-16T17:15:00.925Z,101277.41
2023-04-16T17:17:29.520Z,101277.89
2023-04-16T17:19:58.060Z,101280.23
2023-04-16T17:22:26.357Z,101280.09
2023-04-16T17:24:54.610Z,101277.95
2023-04-16T17:27:22.904Z,101283.16
2023-04-16T17:29:53.166Z,101283.25
2023-04-16T17:32:21.706Z,101287.10
2023-04-16T17:34:50.957Z,101290.23
2023-04-16T17:37:19.323Z,101289.73
2023-04-16T17:39:48.244Z,101298.76
2023-04-16T17:42:18.584Z,101297.20
2023-04-16T17:44:47.448Z,101301.16
2023-04-16T17:47:19.528Z,101302.27
2023-04-16T17:49:48.764Z,101306.69
2023-04-16T17:52:50.345Z,101310.85
2023-04-16T17:55:19.225Z,101307.14
2023-04-16T17:57:47.677Z,101308.88
2023-04-16T18:00:16.544Z,101307.07
2023-04-16T18:02:45.563Z,101310.02
2023-04-16T18:05:14.035Z,101308.20
2023-04-16T18:07:58.465Z,101308.02
2023-04-16T18:10:27.191Z,101310.45
2023-04-16T18:12:55.963Z,101312.10
2023-04-16T18:15:24.443Z,101313.30
2023-04-16T18:17:55.676Z,101316.44
2023-04-16T18:20:24.554Z,101320.11
2023-04-16T18:22:54.847Z,101317.52
2023-04-16T18:25:32.201Z,101319.73
2023-04-16T18:28:04.046Z,101321.67
2023-04-16T18:30:34.546Z,101318.91
2023-04-16T18:35:48.089Z,101324.94
2023-04-16T18:38:17.624Z,101326.08
2023-04-16T18:40:47.143Z,101327.63
2023-04-16T18:43:18.022Z,101324.95
2023-04-16T18:45:47.535Z,101325.70
2023-04-16T18:48:15.957Z,101325.02
2023-04-16T18:50:44.160Z,101323.56
2023-04-16T18:53:12.354Z,101322.30
2023-04-16T18:55:42.496Z,101320.02
2023-04-16T18:58:12.338Z,101319.51
2023-04-16T19:00:40.733Z,101319.27
2023-04-16T19:03:12.493Z,101314.96
2023-04-16T19:05:42.505Z,101314.17
2023-04-16T19:08:13.481Z,101309.29
2023-04-16T19:10:41.961Z,101311.20
2023-04-16T19:13:11.670Z,101310.80
2023-04-16T19:15:41.016Z,101310.55
2023-04-16T19:18:12.005Z,101311.25
2023-04-16T19:20:40.599Z,101308.70
2023-04-16T19:23:09.504Z,101303.89
2023-04-16T19:25:39.043Z,101308.02
2023-04-16T19:28:07.628Z,101309.42
2023-04-16T19:30:36.249Z,101304.97
2023-04-16T19:33:04.978Z,101306.27
2023-04-16T19:35:35.063Z,101301.19
2023-04-16T19:38:03.657Z,101302.27
2023-04-16T19:40:42.350Z,101299.41
2023-04-16T19:43:12.888Z,101303.41
2023-04-16T19:45:52.472Z,101298.29
2023-04-16T19:48:21.727Z,101295.79
2023-04-16T19:50:50.617Z,101292.50
2023-04-16T19:53:19.045Z,101291.78
2023-04-16T19:55:47.371Z,101291.68
2023-04-16T19:58:15.726Z,101289.50
2023-04-16T20:00:44.194Z,101288.39
2023-04-16T20:03:13.049Z,101286.77
2023-04-16T20:05:42.536Z,101287.06
2023-04-16T20:08:10.741Z,101287.20
2023-04-16T20:10:39.278Z,101288.38
2023-04-16T20:13:12.278Z,101288.92
2023-04-16T20:15:43.802Z,101287.17
2023-04-16T20:18:13.147Z,101286.59
2023-04-16T20:20:41.777Z,101286.58
2023-04-16T20:23:10.099Z,101282.31
2023-04-16T20:25:42.747Z,101286.36
2023-04-16T20:28:11.013Z,101284.17
2023-04-16T20:30:40.865Z,101286.26
2023-04-16T20:33:09.323Z,101287.08
2023-04-16T20:35:37.758Z,101285.13
2023-04-16T20:38:05.998Z,101287.19
2023-04-16T20:40:38.264Z,101283.63
2023-04-16T20:43:10.428Z,101280.20
2023-04-16T20:45:41.046Z,101282.27
2023-04-16T20:48:11.997Z,101281.86
2023-04-16T20:50:40.820Z,101282.21
2023-04-16T20:53:09.291Z,101280.77
2023-04-16T20:55:37.537Z,101277.83
2023-04-16T20:58:07.089Z,101277.66
2023-04-16T21:00:36.515Z,101272.63
2023-04-16T21:03:04.851Z,101271.99
2023-04-16T21:05:34.349Z,101270.09
2023-04-16T21:08:02.646Z,101270.45
2023-04-16T21:10:31.565Z,101266.84
2023-04-16T21:13:06.511Z,101266.92
2023-04-16T21:15:35.171Z,101268.91
2023-04-16T21:18:03.780Z,101264.14
2023-04-16T21:20:32.647Z,101267.02
2023-04-16T21:23:01.715Z,101259.34
2023-04-16T21:25:30.689Z,101253.13
2023-04-16T21:27:59.377Z,101254.19
2023-04-16T21:30:27.702Z,101249.45
2023-04-16T21:32:56.106Z,101247.17
2023-04-16T21:35:25.546Z,101250.77
2023-04-16T21:37:53.811Z,101246.94
2023-04-16T21:40:24.139Z,101248.94
2023-04-16T21:42:52.426Z,101247.70
2023-04-16T21:45:20.701Z,101244.05
2023-04-16T21:47:48.942Z,101248.79
2023-04-16T21:50:17.428Z,101246.09
2023-04-16T21:52:47.006Z,101245.36
2023-04-16T21:55:15.325Z,101242.34
2023-04-16T21:57:43.503Z,101243.21
2023-04-16T22:00:15.087Z,101243.60
2023-04-16T22:02:43.792Z,101246.24
2023-04-16T22:05:12.284Z,101246.84
2023-04-16T22:07:40.899Z,101247.41
2023-04-16T22:10:09.699Z,101249.72
2023-04-16T22:12:40.097Z,101246.06
2023-04-16T22:15:09.262Z,101246.58
2023-04-16T22:17:38.905Z,101246.29
2023-04-16T22:20:11.963Z,101244.13
2023-04-16T22:22:41.632Z,101239.88
2023-04-16T22:25:12.853Z,101239.36
2023-04-16T22:27:41.186Z,101234.96
2023-04-16T22:30:09.975Z,101230.65
2023-04-16T22:32:38.769Z,101227.60
2023-04-16T22:35:07.904Z,101226.01
2023-04-16T22:37:39.508Z,101225.52
2023-04-16T22:40:09.103Z,101226.65
2023-04-16T22:42:37.536Z,101220.16
2023-04-16T22:45:07.495Z,101218.84
2023-04-16T22:47:36.644Z,101215.85
2023-04-16T22:50:07.071Z,101217.05
2023-04-16T22:52:36.126Z,101212.70
2023-04-16T22:55:05.416Z,101217.07
2023-04-16T22:57:34.018Z,101212.86
2023-04-16T23:00:05.640Z,101210.70
2023-04-16T23:02:34.821Z,101208.33
2023-04-16T23:05:03.810Z,101209.25
2023-04-16T23:07:32.123Z,101204.33
2023-04-16T23:10:00.447Z,101205.45
2023-04-16T23:12:28.732Z,101202.61
2023-04-16T23:14:57.074Z,101203.94
2023-04-16T23:17:25.413Z,101202.77
2023-04-16T23:19:53.761Z,101196.17
2023-04-16T23:22:22.026Z,101195.09
2023-04-16T23:24:50.407Z,101194.98
2023-04-16T23:27:20.626Z,101195.39
2023-04-16T23:29:50.139Z,101192.13
2023-04-16T23:32:18.648Z,101191.06
2023-04-16T23:34:47.390Z,101185.49
2023-04-16T23:37:15.804Z,101186.90
2023-04-16T23:39:44.428Z,101184.30
2023-04-16T23:42:12.910Z,101187.54
2023-04-16T23:44:41.373Z,101186.14
2023-04-16T23:47:09.755Z,101178.24
2023-04-16T23:49:38.466Z,101174.45
2023-04-16T23:52:07.685Z,101179.78
2023-04-16T23:54:36.207Z,101178.17
2023-04-16T23:57:04.894Z,101178.83
2023-04-16T23:59:33.597Z,101181.29
